Time;durP1;ratioP1;P1;durP2;ratioP2;P2;SDS_P1;SDS_P2;PMS_P1;PMS_P2;Temp;Humidity;BMP_temperature;BMP_pressure;BME280_temperature;BME280_humidity;BME280_pressure;Samples;Min_cycle;Max_cycle;Signal;HPM_P1;HPM_P2
2023/04/18 00:01:37;;;;;;;12.70;8.07;;;8.20;99.90;;;;;;5060116;28;20049;-65
2023/04/18 00:04:06;;;;;;;12.65;8.25;;;8.20;99.90;;;;;;5060964;28;20364;-65
2023/04/18 00:06:34;;;;;;;11.85;8.00;;;8.10;99.90;;;;;;5059295;28;20616;-65
2023/04/18 00:09:00;;;;;;;11.20;7.70;;;8.10;99.90;;;;;;5067255;28;20048;-65
2023/04/18 00:11:26;;;;;;;12.55;8.05;;;8.10;99.90;;;;;;5062488;28;20490;-65
2023/04/18 00:13:52;;;;;;;12.13;8.77;;;8.10;99.90;;;;;;5061813;28;20060;-65
2023/04/18 00:16:18;;;;;;;12.98;7.85;;;8.10;99.90;;;;;;5049313;28;20432;-65
2023/04/18 00:18:43;;;;;;;12.93;8.23;;;8.00;99.90;;;;;;5057156;28;20407;-65
2023/04/18 00:21:09;;;;;;;12.43;8.30;;;8.00;99.90;;;;;;5062337;28;20033;-65
2023/04/18 00:23:34;;;;;;;13.00;8.23;;;8.00;99.90;;;;;;5057602;28;20037;-65
2023/04/18 00:26:00;;;;;;;11.32;8.07;;;8.00;99.90;;;;;;5068301;28;20041;-65
2023/04/18 00:28:26;;;;;;;12.73;8.27;;;8.00;99.90;;;;;;5056329;28;20037;-65
2023/04/18 00:30:52;;;;;;;12.65;8.20;;;7.90;99.90;;;;;;5062662;28;20052;-65
2023/04/18 00:33:18;;;;;;;12.75;8.30;;;7.90;99.90;;;;;;5054747;28;20336;-65
2023/04/18 00:35:43;;;;;;;13.50;8.23;;;7.80;99.90;;;;;;5067519;28;20043;-65
2023/04/18 00:38:09;;;;;;;13.10;8.77;;;7.80;99.90;;;;;;5060445;28;20045;-65
2023/04/18 00:40:35;;;;;;;17.70;8.38;;;7.80;99.90;;;;;;5057041;28;20041;-65
2023/04/18 00:43:01;;;;;;;13.10;8.30;;;7.70;99.90;;;;;;5056937;28;20155;-65
2023/04/18 00:45:27;;;;;;;12.82;8.23;;;7.80;99.90;;;;;;5067039;28;20083;-65
2023/04/18 00:47:54;;;;;;;13.88;7.43;;;7.70;99.90;;;;;;5066068;28;20072;-65
2023/04/18 00:50:19;;;;;;;11.32;7.60;;;7.70;99.90;;;;;;5059198;28;20044;-65
2023/04/18 00:52:46;;;;;;;13.73;8.57;;;7.70;99.90;;;;;;5062480;28;20044;-65
2023/04/18 00:55:12;;;;;;;11.93;7.82;;;7.70;99.90;;;;;;5058239;28;20041;-65
2023/04/18 00:57:37;;;;;;;12.82;7.55;;;7.70;99.90;;;;;;5056889;28;20094;-65
2023/04/18 01:00:11;;;;;;;11.60;7.97;;;7.60;99.90;;;;;;5063440;28;20052;-65
2023/04/18 01:02:38;;;;;;;11.55;8.07;;;7.60;99.90;;;;;;5064890;28;20493;-65
2023/04/18 01:05:04;;;;;;;12.50;8.80;;;7.50;99.90;;;;;;5067156;28;20400;-65
2023/04/18 01:07:32;;;;;;;11.63;8.43;;;7.50;99.90;;;;;;5063053;28;20044;-65
2023/04/18 01:09:58;;;;;;;16.17;8.82;;;7.50;99.90;;;;;;5062694;28;20072;-65
2023/04/18 01:12:23;;;;;;;10.80;8.02;;;7.40;99.90;;;;;;5063390;28;20071;-65
2023/04/18 01:14:49;;;;;;;12.27;8.77;;;7.40;99.90;;;;;;5057772;28;20052;-65
2023/04/18 01:17:15;;;;;;;14.93;8.65;;;7.40;99.90;;;;;;5058911;28;20040;-65
2023/04/18 01:19:40;;;;;;;12.60;8.27;;;7.30;99.90;;;;;;5065776;28;20079;-65
2023/04/18 01:22:06;;;;;;;12.32;8.80;;;7.30;99.90;;;;;;5059019;28;20041;-65
2023/04/18 01:24:32;;;;;;;13.60;8.50;;;7.20;99.90;;;;;;5057346;28;20040;-65
2023/04/18 01:26:58;;;;;;;14.73;8.77;;;7.20;99.90;;;;;;5059704;28;20041;-65
2023/04/18 01:29:24;;;;;;;14.88;8.40;;;7.10;99.90;;;;;;5059289;28;20372;-64
2023/04/18 01:31:50;;;;;;;13.90;9.18;;;7.00;99.90;;;;;;5059436;28;20056;-64
2023/04/18 01:34:18;;;;;;;12.05;8.68;;;7.00;99.90;;;;;;5061550;28;20053;-65
2023/04/18 01:36:45;;;;;;;13.10;8.45;;;6.90;99.90;;;;;;5066074;28;20090;-65
2023/04/18 01:39:11;;;;;;;12.52;8.95;;;6.80;99.90;;;;;;5056758;28;20067;-64
2023/04/18 01:41:36;;;;;;;13.20;8.60;;;6.80;99.90;;;;;;5059430;28;20481;-65
2023/04/18 01:44:02;;;;;;;13.77;8.70;;;6.80;99.90;;;;;;5067266;28;20124;-64
2023/04/18 01:46:28;;;;;;;14.52;9.48;;;6.80;99.90;;;;;;5067946;28;20387;-65
2023/04/18 01:48:55;;;;;;;13.15;9.00;;;6.90;99.90;;;;;;5059246;28;20122;-65
2023/04/18 01:51:20;;;;;;;13.55;8.93;;;6.90;99.90;;;;;;5056409;28;20472;-65
2023/04/18 01:53:46;;;;;;;13.25;8.93;;;6.80;99.90;;;;;;5066713;28;20066;-64
2023/04/18 01:56:11;;;;;;;14.90;9.00;;;6.80;99.90;;;;;;5057992;28;20124;-65
2023/04/18 01:58:37;;;;;;;13.88;8.90;;;6.70;99.90;;;;;;5057890;28;20570;-65
2023/04/18 02:01:03;;;;;;;14.82;9.20;;;6.70;99.90;;;;;;5054699;28;20044;-65
2023/04/18 02:03:29;;;;;;;13.35;8.55;;;6.60;99.90;;;;;;5060263;28;20497;-65
2023/04/18 02:05:54;;;;;;;14.25;9.05;;;6.50;99.90;;;;;;5057896;28;20049;-65
2023/04/18 02:08:20;;;;;;;13.70;9.68;;;6.60;99.90;;;;;;5059861;28;20375;-65
2023/04/18 02:10:46;;;;;;;13.07;9.25;;;6.50;99.90;;;;;;5056955;28;20378;-65
2023/04/18 02:13:13;;;;;;;14.27;9.32;;;6.50;99.90;;;;;;5058131;28;20079;-65
2023/04/18 02:15:38;;;;;;;13.75;9.10;;;6.40;99.90;;;;;;5054847;28;20076;-65
2023/04/18 02:18:05;;;;;;;13.82;9.35;;;6.50;99.90;;;;;;5056490;28;20510;-65
2023/04/18 02:20:32;;;;;;;13.23;8.57;;;6.50;99.90;;;;;;5057598;28;20459;-65
2023/04/18 02:22:58;;;;;;;13.77;9.50;;;6.50;99.90;;;;;;5058527;28;20040;-65
2023/04/18 02:25:26;;;;;;;15.15;10.23;;;6.50;99.90;;;;;;5056168;28;20037;-65
2023/04/18 02:27:53;;;;;;;13.45;8.40;;;6.50;99.90;;;;;;5044978;28;20060;-65
2023/04/18 02:30:19;;;;;;;13.32;9.55;;;6.50;99.90;;;;;;5064751;28;20100;-65
2023/04/18 02:32:44;;;;;;;12.10;8.73;;;6.50;99.90;;;;;;5066292;28;20132;-65
2023/04/18 02:35:11;;;;;;;14.90;9.38;;;6.50;99.90;;;;;;5063359;28;20037;-63
2023/04/18 02:37:37;;;;;;;12.50;9.68;;;6.40;99.90;;;;;;5059420;28;20468;-64
2023/04/18 02:40:06;;;;;;;15.20;9.75;;;6.40;99.90;;;;;;5059645;28;20127;-64
2023/04/18 02:42:31;;;;;;;14.27;9.63;;;6.40;99.90;;;;;;5069430;28;20056;-64
2023/04/18 02:44:57;;;;;;;16.63;9.90;;;6.40;99.90;;;;;;5056468;28;20201;-64
2023/04/18 02:47:22;;;;;;;15.05;10.07;;;6.40;99.90;;;;;;5060578;28;20116;-64
2023/04/18 02:49:48;;;;;;;15.00;10.05;;;6.40;99.90;;;;;;5058706;28;20127;-64
2023/04/18 02:52:14;;;;;;;14.65;9.43;;;6.30;99.90;;;;;;5061583;28;20048;-64
2023/04/18 02:54:39;;;;;;;12.85;9.50;;;6.40;99.90;;;;;;5059584;28;20029;-64
2023/04/18 02:57:05;;;;;;;14.07;9.65;;;6.40;99.90;;;;;;5057394;28;20131;-64
2023/04/18 02:59:30;;;;;;;15.02;8.95;;;6.40;99.90;;;;;;5066056;28;20040;-64
2023/04/18 03:01:56;;;;;;;16.50;9.70;;;6.40;99.90;;;;;;5047177;28;20376;-64
2023/04/18 03:04:22;;;;;;;14.05;9.02;;;6.40;99.90;;;;;;5053850;28;20272;-64
2023/04/18 03:06:48;;;;;;;16.77;9.63;;;6.40;99.90;;;;;;5056459;28;20040;-64
2023/04/18 03:09:14;;;;;;;13.25;8.98;;;6.40;99.90;;;;;;5049775;28;20052;-64
2023/04/18 03:11:40;;;;;;;15.73;9.75;;;6.40;99.90;;;;;;5059107;28;20043;-65
2023/04/18 03:14:05;;;;;;;17.55;10.68;;;6.40;99.90;;;;;;5055199;28;20484;-64
2023/04/18 03:16:31;;;;;;;13.70;9.90;;;6.40;99.90;;;;;;5061390;28;20140;-64
2023/04/18 03:18:57;;;;;;;15.63;10.18;;;6.50;99.90;;;;;;5054318;28;20071;-64
2023/04/18 03:21:22;;;;;;;17.13;10.18;;;6.40;99.90;;;;;;5048129;28;20070;-64
2023/04/18 03:23:48;;;;;;;14.23;9.63;;;6.40;99.90;;;;;;5067151;28;20032;-64
2023/04/18 03:26:14;;;;;;;14.10;9.45;;;6.50;99.90;;;;;;5068725;28;20048;-64
2023/04/18 03:28:40;;;;;;;14.20;10.07;;;6.50;99.90;;;;;;5068533;28;20056;-64
2023/04/18 03:31:05;;;;;;;14.60;10.45;;;6.50;99.90;;;;;;5063124;28;20140;-64
2023/04/18 03:33:31;;;;;;;15.82;9.73;;;6.50;99.90;;;;;;5072823;28;20051;-64
2023/04/18 03:35:57;;;;;;;15.95;10.57;;;6.50;99.90;;;;;;5066179;28;20095;-64
2023/04/18 03:38:23;;;;;;;15.30;11.30;;;6.50;99.90;;;;;;5059329;28;20138;-64
2023/04/18 03:40:49;;;;;;;15.52;10.73;;;6.40;99.90;;;;;;5062990;28;20804;-64
2023/04/18 03:43:14;;;;;;;16.55;11.32;;;6.50;99.90;;;;;;5059203;28;20029;-64
2023/04/18 03:45:40;;;;;;;16.60;11.07;;;6.50;99.90;;;;;;5057043;28;20494;-64
2023/04/18 03:48:06;;;;;;;16.92;11.25;;;6.50;99.90;;;;;;5055235;28;20106;-64
2023/04/18 03:50:32;;;;;;;16.55;10.60;;;6.40;99.90;;;;;;5061761;28;20037;-64
2023/04/18 03:52:57;;;;;;;16.40;10.60;;;6.40;99.90;;;;;;5061109;28;20195;-64
2023/04/18 03:55:25;;;;;;;16.50;11.18;;;6.40;99.90;;;;;;5059475;28;20063;-65
2023/04/18 03:57:50;;;;;;;15.60;10.73;;;6.30;99.90;;;;;;5055751;28;20044;-64
2023/04/18 04:00:16;;;;;;;15.27;10.93;;;6.40;99.90;;;;;;5056654;28;20037;-64
2023/04/18 04:02:43;;;;;;;17.05;10.60;;;6.40;99.90;;;;;;5061505;28;20032;-64
2023/04/18 04:05:09;;;;;;;17.13;10.65;;;6.30;99.90;;;;;;5062348;28;20509;-65
2023/04/18 04:07:35;;;;;;;16.52;11.48;;;6.40;99.90;;;;;;5059060;28;20036;-64
2023/04/18 04:10:01;;;;;;;16.90;12.02;;;6.30;99.90;;;;;;5061472;28;20075;-64
2023/04/18 04:12:26;;;;;;;16.58;11.48;;;6.30;99.90;;;;;;5062319;28;20066;-64
2023/04/18 04:14:52;;;;;;;17.85;10.85;;;6.30;99.90;;;;;;5058629;28;20052;-64
2023/04/18 04:17:18;;;;;;;16.98;10.90;;;6.30;99.90;;;;;;5057240;28;20364;-64
2023/04/18 04:19:43;;;;;;;17.80;11.73;;;6.30;99.90;;;;;;5061529;28;20043;-64
2023/04/18 04:22:09;;;;;;;15.77;10.70;;;6.30;99.90;;;;;;5069262;28;20039;-64
2023/04/18 04:24:37;;;;;;;18.05;11.73;;;6.30;99.90;;;;;;5082206;28;20056;-64
2023/04/18 04:27:03;;;;;;;16.90;11.43;;;6.30;99.90;;;;;;5050046;28;20803;-63
2023/04/18 04:29:30;;;;;;;17.90;10.88;;;6.30;99.90;;;;;;5058515;28;20036;-64
2023/04/18 04:31:55;;;;;;;17.45;10.82;;;6.30;99.90;;;;;;5053311;28;20044;-64
2023/04/18 04:34:21;;;;;;;16.08;11.07;;;6.40;99.90;;;;;;5048190;28;20355;-64
2023/04/18 04:36:47;;;;;;;16.38;10.25;;;6.40;99.90;;;;;;5053661;28;20045;-64
2023/04/18 04:39:13;;;;;;;14.48;10.02;;;6.40;99.90;;;;;;5052167;28;20463;-63
2023/04/18 04:41:39;;;;;;;16.35;10.18;;;6.40;99.90;;;;;;5065770;28;20059;-63
2023/04/18 04:44:05;;;;;;;16.30;10.73;;;6.50;99.90;;;;;;5070862;28;20040;-64
2023/04/18 04:46:32;;;;;;;15.35;9.80;;;6.40;99.90;;;;;;5066505;28;20076;-65
2023/04/18 04:48:58;;;;;;;18.08;10.40;;;6.50;99.90;;;;;;5069353;28;20037;-65
2023/04/18 04:51:24;;;;;;;16.08;10.70;;;6.50;99.90;;;;;;5059740;28;20080;-64
2023/04/18 04:53:50;;;;;;;16.05;10.40;;;6.50;99.90;;;;;;5064581;28;20087;-65
2023/04/18 04:56:16;;;;;;;14.85;10.48;;;6.50;99.90;;;;;;5060747;28;20357;-65
2023/04/18 04:58:42;;;;;;;16.20;10.93;;;6.50;99.90;;;;;;5058594;28;20037;-65
2023/04/18 05:01:08;;;;;;;16.33;10.25;;;6.50;99.90;;;;;;5053398;28;20547;-65
2023/04/18 05:03:35;;;;;;;16.02;10.32;;;6.50;99.90;;;;;;5061954;28;20498;-64
2023/04/18 05:06:01;;;;;;;16.85;10.25;;;6.60;99.90;;;;;;5059947;28;20331;-65
2023/04/18 05:08:27;;;;;;;16.63;10.70;;;6.60;99.90;;;;;;5061505;28;20048;-64
2023/04/18 05:10:54;;;;;;;16.50;10.70;;;6.70;99.90;;;;;;5067878;28;21067;-64
2023/04/18 05:13:19;;;;;;;18.50;10.55;;;6.80;99.90;;;;;;5067521;28;20105;-65
2023/04/18 05:15:45;;;;;;;14.98;10.25;;;6.80;99.90;;;;;;5061593;28;20146;-65
2023/04/18 05:18:12;;;;;;;15.10;10.57;;;6.80;99.90;;;;;;5066005;28;20051;-65
2023/04/18 05:20:38;;;;;;;15.25;9.93;;;6.90;99.90;;;;;;5066257;28;20044;-64
2023/04/18 05:23:03;;;;;;;17.13;10.65;;;6.90;99.90;;;;;;5060647;28;20106;-66
2023/04/18 05:25:30;;;;;;;19.20;11.30;;;7.00;99.90;;;;;;5054656;28;20099;-65
2023/04/18 05:27:56;;;;;;;16.48;12.07;;;7.10;99.90;;;;;;5077457;28;20048;-64
2023/04/18 05:30:21;;;;;;;17.50;11.18;;;7.10;99.90;;;;;;5055268;28;20043;-65
2023/04/18 05:32:47;;;;;;;17.80;11.07;;;7.10;99.90;;;;;;5056800;28;20105;-65
2023/04/18 05:35:13;;;;;;;17.83;11.77;;;7.20;99.90;;;;;;5061801;28;20124;-65
2023/04/18 05:37:38;;;;;;;18.80;11.45;;;7.20;99.90;;;;;;5067353;28;20156;-64
2023/04/18 05:40:05;;;;;;;16.95;11.25;;;7.20;99.90;;;;;;5062541;28;20048;-65
2023/04/18 05:42:31;;;;;;;18.70;11.43;;;7.20;99.90;;;;;;5060854;28;20037;-65
2023/04/18 05:44:57;;;;;;;18.90;12.23;;;7.20;99.90;;;;;;5054728;28;20044;-65
2023/04/18 05:47:25;;;;;;;17.67;11.48;;;7.20;99.90;;;;;;5063977;28;20083;-65
2023/04/18 05:49:51;;;;;;;17.35;11.27;;;7.30;99.90;;;;;;5063431;28;20152;-65
2023/04/18 05:52:16;;;;;;;16.33;11.07;;;7.20;99.90;;;;;;5066219;28;20384;-65
2023/04/18 05:54:42;;;;;;;17.30;11.30;;;7.20;99.90;;;;;;5058677;28;20059;-65
2023/04/18 05:57:07;;;;;;;16.90;11.07;;;7.20;99.90;;;;;;5056070;28;20045;-65
2023/04/18 05:59:33;;;;;;;16.48;10.90;;;7.20;99.90;;;;;;5065644;28;20052;-65
2023/04/18 06:01:58;;;;;;;17.17;10.90;;;7.20;99.90;;;;;;5068859;28;20045;-65
2023/04/18 06:04:24;;;;;;;17.52;11.35;;;7.20;99.90;;;;;;5058346;28;20502;-64
2023/04/18 06:06:50;;;;;;;20.75;12.65;;;7.20;99.90;;;;;;5058106;28;20345;-65
2023/04/18 06:09:15;;;;;;;18.52;11.73;;;7.30;99.90;;;;;;5051328;28;20127;-65
2023/04/18 06:11:41;;;;;;;16.13;11.35;;;7.20;99.90;;;;;;5064950;28;20062;-66
2023/04/18 06:14:06;;;;;;;18.17;11.05;;;7.30;99.90;;;;;;5057375;28;20486;-65
2023/04/18 06:16:32;;;;;;;16.15;11.15;;;7.30;99.90;;;;;;5054627;28;20087;-65
2023/04/18 06:18:58;;;;;;;17.77;11.15;;;7.30;99.90;;;;;;5060643;28;20048;-65
2023/04/18 06:21:24;;;;;;;16.52;11.70;;;7.40;99.90;;;;;;5067429;28;20147;-65
2023/04/18 06:23:50;;;;;;;14.65;10.32;;;7.40;99.90;;;;;;5067937;28;20526;-65
2023/04/18 06:26:16;;;;;;;15.95;9.95;;;7.40;99.90;;;;;;5069241;28;20037;-65
2023/04/18 06:28:41;;;;;;;16.50;11.38;;;7.40;99.90;;;;;;5064940;28;20074;-65
2023/04/18 06:31:07;;;;;;;19.73;11.45;;;7.50;99.90;;;;;;5050194;28;20040;-65
2023/04/18 06:33:33;;;;;;;18.80;10.68;;;7.50;99.90;;;;;;5068569;28;20059;-65
2023/04/18 06:35:58;;;;;;;17.70;10.73;;;7.60;99.90;;;;;;5066804;28;20380;-65
2023/04/18 06:38:24;;;;;;;16.67;10.90;;;7.60;99.90;;;;;;5068543;28;20055;-65
2023/04/18 06:40:49;;;;;;;17.90;11.45;;;7.70;99.90;;;;;;5068484;28;20455;-65
2023/04/18 06:43:15;;;;;;;15.63;10.27;;;7.70;99.90;;;;;;5069712;28;20503;-65
2023/04/18 06:45:40;;;;;;;16.30;10.98;;;7.90;99.90;;;;;;5067811;28;20040;-64
2023/04/18 06:48:07;;;;;;;16.17;11.23;;;8.00;99.90;;;;;;5069699;28;20043;-66
2023/04/18 06:50:33;;;;;;;15.18;10.57;;;8.10;99.90;;;;;;5068880;28;20093;-65
2023/04/18 06:52:59;;;;;;;16.70;11.13;;;8.20;99.90;;;;;;5066454;28;20044;-65
2023/04/18 06:55:24;;;;;;;17.70;10.82;;;8.30;99.90;;;;;;5070062;28;20137;-65
2023/04/18 06:57:50;;;;;;;16.27;10.50;;;8.30;99.90;;;;;;5066161;28;20072;-65
2023/04/18 07:00:16;;;;;;;15.40;10.10;;;8.30;99.90;;;;;;5066942;28;20032;-67
2023/04/18 07:02:41;;;;;;;16.38;10.80;;;8.40;99.90;;;;;;5064288;28;20119;-66
2023/04/18 07:05:07;;;;;;;15.02;9.65;;;8.50;99.90;;;;;;5066427;28;20037;-66
2023/04/18 07:07:34;;;;;;;14.82;10.68;;;8.50;99.90;;;;;;5065083;28;20137;-66
2023/04/18 07:09:59;;;;;;;14.32;10.50;;;8.50;99.90;;;;;;5055144;28;20048;-65
2023/04/18 07:12:26;;;;;;;15.07;10.40;;;8.80;99.90;;;;;;5052965;28;20040;-65
2023/04/18 07:14:52;;;;;;;14.25;10.18;;;9.00;99.90;;;;;;5062181;28;20596;-66
2023/04/18 07:17:18;;;;;;;13.25;10.00;;;9.10;99.90;;;;;;5065978;28;20044;-66
2023/04/18 07:19:43;;;;;;;17.15;10.10;;;9.10;99.90;;;;;;5065402;28;21469;-65
2023/04/18 07:22:09;;;;;;;17.02;10.68;;;9.20;99.90;;;;;;5059839;28;20051;-65
2023/04/18 07:24:35;;;;;;;15.18;10.15;;;9.20;99.90;;;;;;5061464;28;20056;-65
2023/04/18 07:27:02;;;;;;;15.63;10.65;;;9.20;99.90;;;;;;5059581;28;20053;-66
2023/04/18 07:29:27;;;;;;;14.73;10.30;;;9.30;99.90;;;;;;5062731;28;20079;-65
2023/04/18 07:31:53;;;;;;;14.18;10.10;;;9.30;99.90;;;;;;5067787;28;20068;-67
2023/04/18 07:34:18;;;;;;;15.98;10.02;;;9.30;99.90;;;;;;5055192;28;20041;-67
2023/04/18 07:36:44;;;;;;;15.18;10.32;;;9.30;99.90;;;;;;5059405;28;20033;-66
2023/04/18 07:39:10;;;;;;;15.23;11.00;;;9.40;99.90;;;;;;5061649;28;20044;-67
2023/04/18 07:41:35;;;;;;;14.98;9.63;;;9.60;99.90;;;;;;5066850;28;20510;-67
2023/04/18 07:44:01;;;;;;;16.83;9.70;;;9.60;99.90;;;;;;5065165;28;20333;-67
2023/04/18 07:46:27;;;;;;;13.05;9.43;;;9.70;99.90;;;;;;5057630;28;20079;-66
2023/04/18 07:48:53;;;;;;;15.18;9.82;;;9.70;99.90;;;;;;5059794;28;20048;-66
2023/04/18 07:51:19;;;;;;;13.70;9.35;;;9.70;99.90;;;;;;5061243;28;20068;-66
2023/04/18 07:53:44;;;;;;;12.77;8.45;;;9.80;99.90;;;;;;5061355;28;20041;-65
2023/04/18 07:56:14;;;;;;;12.52;8.77;;;9.80;99.90;;;;;;5060115;28;20385;-66
2023/04/18 07:58:39;;;;;;;13.98;7.85;;;9.80;99.90;;;;;;5046502;28;20411;-66
2023/04/18 08:01:06;;;;;;;13.50;8.70;;;9.80;99.90;;;;;;5055758;28;20041;-66
2023/04/18 08:03:34;;;;;;;13.48;8.75;;;9.70;99.90;;;;;;5051050;28;20045;-66
2023/04/18 08:06:01;;;;;;;11.02;7.60;;;9.70;99.90;;;;;;5052087;28;20056;-67
2023/04/18 08:08:27;;;;;;;15.00;8.50;;;9.80;99.90;;;;;;5051555;28;20102;-66
2023/04/18 08:10:52;;;;;;;14.10;8.57;;;9.90;99.90;;;;;;5054805;28;20052;-66
2023/04/18 08:13:18;;;;;;;12.98;8.85;;;10.10;99.90;;;;;;5071665;28;20047;-66
2023/04/18 08:15:45;;;;;;;11.50;8.23;;;10.20;99.90;;;;;;5060503;28;20045;-66
2023/04/18 08:18:10;;;;;;;11.27;7.47;;;10.20;99.90;;;;;;5071909;28;20173;-66
2023/04/18 08:20:37;;;;;;;13.73;8.40;;;10.20;99.90;;;;;;5071269;28;20104;-63
2023/04/18 08:23:02;;;;;;;10.82;7.22;;;10.20;99.90;;;;;;5066922;28;20071;-66
2023/04/18 08:25:28;;;;;;;11.27;7.65;;;10.20;99.90;;;;;;5065915;28;20041;-65
2023/04/18 08:27:54;;;;;;;11.77;8.05;;;10.30;99.90;;;;;;5068677;28;20087;-65
2023/04/18 08:30:20;;;;;;;10.88;8.18;;;10.50;99.90;;;;;;5061924;28;20047;-66
2023/04/18 08:32:45;;;;;;;11.93;7.82;;;10.50;99.90;;;;;;5071368;28;20044;-65
2023/04/18 08:35:11;;;;;;;11.13;7.85;;;10.60;99.90;;;;;;5067291;28;20052;-65
2023/04/18 08:37:37;;;;;;;11.80;8.23;;;10.70;99.90;;;;;;5070478;28;20074;-65
2023/04/18 08:40:04;;;;;;;11.93;8.20;;;10.90;99.90;;;;;;5071377;28;20047;-64
2023/04/18 08:42:30;;;;;;;11.35;7.57;;;11.00;99.90;;;;;;5054883;28;20040;-65
2023/04/18 08:44:58;;;;;;;12.25;7.78;;;11.20;99.90;;;;;;5072304;28;20484;-65
2023/04/18 08:47:25;;;;;;;11.93;8.57;;;11.00;99.90;;;;;;5053125;28;20045;-65
2023/04/18 08:49:52;;;;;;;12.52;8.45;;;11.20;99.90;;;;;;5060451;28;20352;-65
2023/04/18 08:52:21;;;;;;;11.55;7.70;;;11.30;99.90;;;;;;5066677;28;20075;-66
2023/04/18 08:54:48;;;;;;;11.57;8.15;;;11.40;99.90;;;;;;5061579;28;20052;-65
2023/04/18 08:57:15;;;;;;;11.38;7.88;;;11.50;99.90;;;;;;5069353;28;20147;-66
2023/04/18 08:59:44;;;;;;;11.55;8.40;;;11.50;99.90;;;;;;5064729;28;20083;-66
2023/04/18 09:02:14;;;;;;;12.10;8.32;;;11.50;99.90;;;;;;5057110;28;20116;-65
2023/04/18 09:04:45;;;;;;;11.88;8.00;;;11.50;99.90;;;;;;5066578;28;20044;-65
2023/04/18 09:07:12;;;;;;;11.35;8.25;;;11.60;99.90;;;;;;5057034;28;20056;-65
2023/04/18 09:09:48;;;;;;;12.40;8.52;;;11.70;99.90;;;;;;5067278;28;20358;-67
2023/04/18 09:12:17;;;;;;;13.60;8.38;;;11.80;99.90;;;;;;5070136;28;20051;-65
2023/04/18 09:14:45;;;;;;;13.45;8.90;;;11.80;99.90;;;;;;5066442;28;20426;-66
2023/04/18 09:17:34;;;;;;;11.85;8.50;;;11.70;99.90;;;;;;5058281;28;20040;-66
2023/04/18 09:20:05;;;;;;;12.75;9.13;;;11.70;99.90;;;;;;5054150;28;20488;-66
2023/04/18 09:22:50;;;;;;;13.48;9.20;;;11.70;99.90;;;;;;5055895;28;20418;-66
2023/04/18 09:25:27;;;;;;;12.10;8.68;;;11.80;99.90;;;;;;5068495;28;20052;-66
2023/04/18 09:27:59;;;;;;;12.45;8.52;;;12.00;99.90;;;;;;5063894;28;20170;-66
2023/04/18 09:30:43;;;;;;;13.23;8.75;;;12.10;99.90;;;;;;5051715;28;20040;-66
2023/04/18 09:33:09;;;;;;;13.00;8.65;;;12.10;99.90;;;;;;5056451;28;20492;-66
2023/04/18 09:35:38;;;;;;;12.57;8.23;;;12.10;99.90;;;;;;5071390;28;20123;-66
2023/04/18 09:38:05;;;;;;;12.65;8.57;;;12.10;99.90;;;;;;5057473;28;20056;-65
2023/04/18 09:40:31;;;;;;;11.25;7.93;;;12.10;99.90;;;;;;5064892;28;20070;-65
2023/04/18 09:42:57;;;;;;;13.50;8.43;;;12.20;99.90;;;;;;5064869;28;20040;-66
2023/04/18 09:45:24;;;;;;;11.05;8.70;;;12.30;99.90;;;;;;5053968;28;20041;-65
2023/04/18 09:47:50;;;;;;;12.23;8.95;;;12.30;99.90;;;;;;5069198;28;20456;-65
2023/04/18 09:50:17;;;;;;;12.15;9.13;;;12.40;99.90;;;;;;5069596;28;20036;-65
2023/04/18 09:52:44;;;;;;;13.27;9.82;;;12.60;99.90;;;;;;5064501;28;20131;-65
2023/04/18 09:55:13;;;;;;;13.27;9.32;;;12.70;99.90;;;;;;5057095;28;20032;-67
2023/04/18 09:57:43;;;;;;;12.63;9.27;;;12.60;99.90;;;;;;5068483;28;20086;-64
2023/04/18 10:00:18;;;;;;;11.75;8.75;;;12.70;99.90;;;;;;5071132;28;20036;-64
2023/04/18 10:02:47;;;;;;;13.65;9.48;;;12.70;99.90;;;;;;5064765;28;20040;-65
2023/04/18 10:05:13;;;;;;;14.20;9.70;;;12.70;99.90;;;;;;5068191;28;20040;-64
2023/04/18 10:07:42;;;;;;;15.23;10.50;;;12.80;99.90;;;;;;5069985;28;20502;-65
2023/04/18 10:10:08;;;;;;;13.90;9.75;;;12.90;99.90;;;;;;5061348;28;20376;-65
2023/04/18 10:12:36;;;;;;;13.32;9.45;;;13.00;99.90;;;;;;5066857;28;20048;-64
2023/04/18 10:15:02;;;;;;;12.68;9.77;;;13.10;99.90;;;;;;5066695;28;20128;-66
2023/04/18 10:17:27;;;;;;;14.43;10.35;;;13.20;99.90;;;;;;5066384;28;20048;-65
2023/04/18 10:20:05;;;;;;;13.93;9.50;;;13.40;99.90;;;;;;5070688;28;20368;-65
2023/04/18 10:22:32;;;;;;;13.73;10.20;;;13.50;99.90;;;;;;5059831;28;20509;-66
2023/04/18 10:24:57;;;;;;;14.60;10.70;;;13.60;99.90;;;;;;5058241;28;20040;-66
2023/04/18 10:27:48;;;;;;;14.40;10.60;;;13.70;99.90;;;;;;5052499;28;20036;-66
2023/04/18 10:30:14;;;;;;;14.15;11.10;;;13.70;99.90;;;;;;5068071;28;20125;-66
2023/04/18 10:32:40;;;;;;;15.35;10.38;;;13.80;99.90;;;;;;5057812;28;20044;-66
2023/04/18 10:35:06;;;;;;;16.48;10.73;;;14.00;99.90;;;;;;5066885;28;20098;-66
2023/04/18 10:37:32;;;;;;;14.15;9.85;;;14.20;99.90;;;;;;5072206;28;20090;-66
2023/04/18 10:40:05;;;;;;;13.85;9.88;;;14.30;99.90;;;;;;5068623;28;20450;-65
2023/04/18 10:42:46;;;;;;;13.63;10.25;;;14.40;99.90;;;;;;5057775;28;20041;-66
2023/04/18 10:45:22;;;;;;;18.08;10.35;;;14.30;99.90;;;;;;5067602;28;20040;-66
2023/04/18 10:47:47;;;;;;;14.50;10.13;;;14.10;99.90;;;;;;5069630;28;20048;-66
2023/04/18 10:50:14;;;;;;;14.32;10.02;;;14.00;99.90;;;;;;5067952;28;20063;-66
2023/04/18 10:52:40;;;;;;;13.45;9.13;;;14.20;99.90;;;;;;5069036;28;20380;-66
2023/04/18 10:55:23;;;;;;;13.90;9.65;;;14.10;99.90;;;;;;5062069;28;20083;-66
2023/04/18 10:57:50;;;;;;;14.15;10.02;;;14.20;99.90;;;;;;5048904;28;20085;-66
2023/04/18 11:00:17;;;;;;;18.35;10.82;;;14.20;99.90;;;;;;5052545;28;20482;-66
2023/04/18 11:02:56;;;;;;;13.10;10.13;;;14.20;99.90;;;;;;5069561;28;20044;-66
2023/04/18 11:05:26;;;;;;;12.05;9.07;;;14.20;99.90;;;;;;5058539;28;20060;-66
2023/04/18 11:07:53;;;;;;;11.82;8.30;;;14.20;99.90;;;;;;5078322;28;20125;-66
2023/04/18 11:10:21;;;;;;;11.05;8.55;;;14.00;99.90;;;;;;5052740;28;20090;-66
2023/04/18 11:12:47;;;;;;;13.55;8.60;;;13.80;99.90;;;;;;5060772;28;20052;-66
2023/04/18 11:15:24;;;;;;;11.30;8.48;;;13.90;99.90;;;;;;5065880;28;20398;-66
2023/04/18 11:18:00;;;;;;;12.52;8.50;;;13.70;99.90;;;;;;5063138;28;20140;-66
2023/04/18 11:20:26;;;;;;;12.57;8.65;;;13.60;99.90;;;;;;5054379;28;20471;-67
2023/04/18 11:22:57;;;;;;;11.77;8.68;;;13.50;99.90;;;;;;5069402;28;20110;-66
2023/04/18 11:25:26;;;;;;;11.88;8.70;;;13.40;99.90;;;;;;5068843;28;20085;-66
2023/04/18 11:27:51;;;;;;;14.15;9.52;;;13.60;99.90;;;;;;5062798;28;20135;-66
2023/04/18 11:30:17;;;;;;;12.38;9.75;;;13.80;99.90;;;;;;5062805;28;20352;-66
2023/04/18 11:32:43;;;;;;;14.90;9.23;;;13.90;99.90;;;;;;5061591;28;20052;-66
2023/04/18 11:35:10;;;;;;;12.13;9.48;;;13.90;99.90;;;;;;5069157;28;20125;-66
2023/04/18 11:37:37;;;;;;;13.75;10.02;;;14.00;99.90;;;;;;5068239;28;20063;-67
2023/04/18 11:40:06;;;;;;;13.60;9.85;;;14.00;99.90;;;;;;5053847;28;20048;-67
2023/04/18 11:42:33;;;;;;;14.52;9.70;;;13.90;99.90;;;;;;5060393;28;20204;-67
2023/04/18 11:44:58;;;;;;;12.65;9.98;;;14.10;99.90;;;;;;5070830;28;20048;-67
2023/04/18 11:47:30;;;;;;;14.90;10.70;;;14.40;99.90;;;;;;5058265;28;20432;-66
2023/04/18 11:49:56;;;;;;;13.55;10.40;;;14.60;99.90;;;;;;5056571;28;20564;-67
2023/04/18 11:52:21;;;;;;;17.60;10.60;;;14.80;99.90;;;;;;5053636;28;20056;-67
2023/04/18 11:54:47;;;;;;;11.57;9.25;;;15.00;99.90;;;;;;5068241;28;20395;-67
2023/04/18 11:57:28;;;;;;;14.30;9.25;;;14.80;99.90;;;;;;5070590;28;20603;-67
2023/04/18 11:59:58;;;;;;;11.68;8.95;;;14.70;99.90;;;;;;5072023;28;20526;-67
2023/04/18 12:02:26;;;;;;;12.27;9.90;;;14.50;99.90;;;;;;5070653;28;20120;-67
2023/04/18 12:04:52;;;;;;;11.93;9.15;;;14.50;99.90;;;;;;5053883;28;20432;-67
2023/04/18 12:07:42;;;;;;;12.57;9.32;;;14.60;99.90;;;;;;5058847;28;20037;-66
2023/04/18 12:10:23;;;;;;;12.35;9.02;;;14.60;99.90;;;;;;5051633;28;20123;-66
2023/04/18 12:12:53;;;;;;;11.57;9.35;;;14.50;99.90;;;;;;5053796;28;20051;-67
2023/04/18 12:15:20;;;;;;;13.63;9.43;;;14.30;99.90;;;;;;5062701;28;20469;-67
2023/04/18 12:17:52;;;;;;;10.38;8.48;;;14.20;99.90;;;;;;5054034;28;20094;-67
2023/04/18 12:20:18;;;;;;;11.80;8.73;;;14.20;99.90;;;;;;5052975;28;20089;-66
2023/04/18 12:22:48;;;;;;;11.57;9.20;;;14.20;99.90;;;;;;5073138;28;20049;-67
2023/04/18 12:25:22;;;;;;;11.57;9.13;;;14.10;99.90;;;;;;5053964;28;20381;-67
2023/04/18 12:27:52;;;;;;;15.27;9.60;;;14.00;99.90;;;;;;5067284;28;20090;-67
2023/04/18 12:30:20;;;;;;;14.13;9.55;;;13.90;99.90;;;;;;5062586;28;20526;-67
2023/04/18 12:32:54;;;;;;;11.88;9.13;;;13.90;99.90;;;;;;5068634;28;20133;-67
2023/04/18 12:35:21;;;;;;;13.17;9.60;;;13.90;99.90;;;;;;5056115;28;20405;-67
2023/04/18 12:37:48;;;;;;;12.32;9.30;;;14.00;99.90;;;;;;5067389;28;20051;-67